Time;durP1;ratioP1;P1;durP2;ratioP2;P2;SDS_P1;SDS_P2;PMS_P1;PMS_P2;Temp;Humidity;BMP_temperature;BMP_pressure;BME280_temperature;BME280_humidity;BME280_pressure;Samples;Min_cycle;Max_cycle;Signal;HPM_P1;HPM_P2
2022/06/05 00:01:31;;;;;;;21.10;8.90;;;;;;;20.04;53.32;99334.68;25077;1314;3026912;-66
2022/06/05 00:04:01;;;;;;;25.50;9.80;;;;;;;20.01;54.01;99336.21;25062;1315;3053647;-63
2022/06/05 00:07:02;;;;;;;20.60;8.80;;;;;;;19.99;54.06;99332.39;25078;1314;3026857;-63
2022/06/05 00:09:48;;;;;;;20.60;9.40;;;;;;;19.93;54.57;99330.48;25062;1318;3052275;-62
2022/06/05 00:12:19;;;;;;;26.90;9.80;;;;;;;19.92;54.48;99331.81;25227;1314;3055528;-64
2022/06/05 00:14:48;;;;;;;20.50;9.60;;;;;;;19.89;54.41;99331.45;25279;1314;3026879;-64
2022/06/05 00:17:20;;;;;;;22.80;9.50;;;;;;;19.84;54.63;99334.44;25280;1313;3026766;-63
2022/06/05 00:19:52;;;;;;;24.80;9.60;;;;;;;19.81;54.50;99330.13;25050;1315;3053323;-64
2022/06/05 00:22:21;;;;;;;23.10;10.80;;;;;;;19.76;54.96;99328.04;25060;1314;3026906;-65
2022/06/05 00:24:49;;;;;;;24.80;10.50;;;;;;;19.74;54.91;99323.10;25097;1314;3026486;-64
2022/06/05 00:27:37;;;;;;;20.90;9.50;;;;;;;19.71;54.88;99318.78;25060;1315;3052433;-63
2022/06/05 00:30:17;;;;;;;28.80;10.90;;;;;;;19.63;55.23;99308.94;25105;1314;3053388;-64
2022/06/05 00:32:56;;;;;;;29.90;11.40;;;;;;;19.54;55.74;99305.63;25087;1314;3071793;-63
2022/06/05 00:35:31;;;;;;;19.60;10.00;;;;;;;19.42;55.96;99303.17;25096;1314;3051294;-64
2022/06/05 00:38:17;;;;;;;23.50;9.90;;;;;;;19.44;55.65;99304.77;25098;1315;3055268;-65
2022/06/05 00:40:59;;;;;;;20.40;9.10;;;;;;;19.46;55.45;99298.38;25075;1315;3053061;-64
2022/06/05 00:43:28;;;;;;;23.60;9.70;;;;;;;19.44;55.30;99294.30;25078;1314;3059150;-63
2022/06/05 00:45:58;;;;;;;30.00;10.20;;;;;;;19.40;55.61;99292.84;25089;1315;3026876;-63
2022/06/05 00:48:27;;;;;;;20.00;9.10;;;;;;;19.34;55.88;99291.95;25062;1314;3026519;-65
2022/06/05 00:50:56;;;;;;;22.10;9.20;;;;;;;19.33;55.97;99290.24;25061;1315;3058324;-62
2022/06/05 00:53:25;;;;;;;26.90;9.50;;;;;;;19.32;55.72;99282.71;25112;1314;3027797;-64
2022/06/05 00:55:56;;;;;;;18.90;8.50;;;;;;;19.33;55.74;99283.53;25075;1314;3054728;-62
2022/06/05 00:58:25;;;;;;;19.70;8.60;;;;;;;19.30;55.65;99283.27;25059;1314;3026741;-64
2022/06/05 01:00:57;;;;;;;21.40;8.90;;;;;;;19.29;55.81;99283.02;25081;1314;3052018;-64
2022/06/05 01:03:26;;;;;;;21.80;8.60;;;;;;;19.31;55.41;99284.97;25097;1314;3026542;-64
2022/06/05 01:05:55;;;;;;;24.30;9.30;;;;;;;19.29;55.89;99276.67;25074;1314;3051204;-64
2022/06/05 01:08:27;;;;;;;21.20;8.70;;;;;;;19.30;55.58;99281.88;25068;1314;3026601;-62
2022/06/05 01:11:26;;;;;;;21.60;9.60;;;;;;;19.29;55.93;99277.53;25137;1314;3026814;-65
2022/06/05 01:14:16;;;;;;;18.70;8.40;;;;;;;19.23;56.28;99275.82;25037;1314;3052194;-65
2022/06/05 01:16:48;;;;;;;28.20;9.00;;;;;;;19.21;56.17;99274.06;25047;1314;3053863;-62
2022/06/05 01:19:41;;;;;;;24.70;10.20;;;;;;;19.17;56.32;99279.48;25121;1314;3026774;-62
2022/06/05 01:22:29;;;;;;;30.50;9.10;;;;;;;19.15;56.62;99279.15;25099;1315;3055871;-65
2022/06/05 01:25:05;;;;;;;23.60;8.70;;;;;;;19.13;56.47;99277.49;25082;1314;3050291;-64
2022/06/05 01:27:36;;;;;;;23.00;9.60;;;;;;;19.14;56.36;99282.77;25104;1315;3053520;-63
2022/06/05 01:30:07;;;;;;;22.50;8.60;;;;;;;19.15;56.38;99282.31;25101;1315;3026557;-64
2022/06/05 01:32:59;;;;;;;23.00;9.10;;;;;;;19.15;56.18;99282.89;25096;1314;3026882;-63
2022/06/05 01:35:39;;;;;;;19.20;8.30;;;;;;;19.17;56.33;99285.85;25120;1313;3048173;-65
2022/06/05 01:38:21;;;;;;;17.20;8.20;;;;;;;19.17;55.97;99283.90;25069;1314;3054167;-64
2022/06/05 01:40:53;;;;;;;19.40;8.30;;;;;;;19.18;56.24;99283.66;25098;1314;3055619;-64
2022/06/05 01:43:24;;;;;;;20.90;8.20;;;;;;;19.18;56.15;99285.42;25062;1317;3026552;-63
2022/06/05 01:46:01;;;;;;;19.90;8.40;;;;;;;19.16;56.16;99284.71;25058;1315;3026362;-63
2022/06/05 01:48:40;;;;;;;19.30;8.40;;;;;;;19.19;55.83;99285.50;25088;1315;3055551;-64
2022/06/05 01:51:17;;;;;;;17.20;8.40;;;;;;;19.17;56.20;99280.69;25076;1315;3052837;-61
2022/06/05 01:53:48;;;;;;;17.90;7.70;;;;;;;19.17;56.35;99281.30;25056;1315;3069885;-63
2022/06/05 01:56:23;;;;;;;21.50;7.40;;;;;;;19.16;56.46;99280.75;25040;1314;3026150;-62
2022/06/05 01:59:01;;;;;;;15.30;7.50;;;;;;;19.19;56.36;99283.38;25047;1314;3055040;-62
2022/06/05 02:01:41;;;;;;;16.00;7.70;;;;;;;19.20;56.40;99283.23;25082;1315;3055155;-64
2022/06/05 02:04:36;;;;;;;13.60;7.90;;;;;;;19.21;56.23;99282.45;25086;1314;3060859;-63
2022/06/05 02:07:19;;;;;;;14.50;8.10;;;;;;;19.24;55.78;99279.85;25074;1315;3054643;-63
2022/06/05 02:09:53;;;;;;;16.20;7.70;;;;;;;19.24;56.05;99274.14;25120;1314;3056079;-64
2022/06/05 02:12:23;;;;;;;19.50;7.90;;;;;;;19.25;55.52;99269.61;25106;1315;3028794;-64
2022/06/05 02:14:54;;;;;;;20.00;8.10;;;;;;;19.25;55.73;99268.11;25032;1314;3026741;-63
2022/06/05 02:17:23;;;;;;;13.20;7.70;;;;;;;19.28;55.83;99274.95;25092;1314;3055481;-63
2022/06/05 02:19:52;;;;;;;18.10;7.70;;;;;;;19.27;55.92;99277.48;25103;1314;3026524;-63
2022/06/05 02:22:26;;;;;;;14.60;7.30;;;;;;;19.28;55.65;99279.79;25082;1314;3052138;-63
2022/06/05 02:24:55;;;;;;;;;;;;;;;19.27;55.76;99274.55;25067;1314;3053426;-65
2022/06/05 02:27:25;;;;;;;18.60;6.90;;;;;;;19.25;55.98;99271.88;25117;1314;3026254;-63
2022/06/05 02:29:54;;;;;;;17.90;7.40;;;;;;;19.27;55.90;99274.19;25073;1315;3050040;-62
2022/06/05 02:32:31;;;;;;;23.10;8.30;;;;;;;19.27;56.14;99278.98;25055;1315;3026456;-64
2022/06/05 02:35:38;;;;;;;25.60;10.60;;;;;;;19.28;56.07;99276.52;25113;1314;3056395;-65
2022/06/05 02:38:34;;;;;;;16.10;8.30;;;;;;;19.32;56.24;99276.23;25060;1315;3052036;-62
2022/06/05 02:41:19;;;;;;;27.40;8.20;;;;;;;19.36;56.18;99272.42;25047;1314;3055762;-64
2022/06/05 02:47:04;;;;;;;20.30;7.80;;;;;;;19.39;56.07;99279.69;25089;1314;3071651;-61
2022/06/05 02:49:38;;;;;;;20.90;7.80;;;;;;;19.39;56.32;99276.18;25105;1314;3051735;-63
2022/06/05 02:52:07;;;;;;;20.40;7.80;;;;;;;19.41;56.27;99277.58;25056;1314;3026871;-63
2022/06/05 02:54:45;;;;;;;20.60;8.50;;;;;;;19.39;56.15;99275.79;25069;1317;3027997;-62
2022/06/05 02:57:14;;;;;;;20.60;8.40;;;;;;;19.43;56.41;99277.40;25087;1314;3050065;-62
2022/06/05 02:59:43;;;;;;;22.40;8.50;;;;;;;19.47;56.22;99277.57;25132;1315;3027348;-62
2022/06/05 03:05:00;;;;;;;16.70;8.30;;;;;;;19.48;56.39;99271.38;25091;1314;3053439;-63
2022/06/05 03:07:31;;;;;;;21.50;8.70;;;;;;;19.53;56.16;99282.48;25066;1315;3026831;-62
2022/06/05 03:10:00;;;;;;;16.70;8.20;;;;;;;19.58;56.23;99281.58;25080;1314;3026329;-62
2022/06/05 03:12:32;;;;;;;19.70;9.10;;;;;;;19.61;56.42;99281.80;25122;1314;3027576;-63
2022/06/05 03:15:02;;;;;;;17.40;9.50;;;;;;;19.62;56.57;99282.23;25048;1313;3026211;-63
2022/06/05 03:17:31;;;;;;;22.70;9.20;;;;;;;19.62;56.50;99282.58;25086;1314;3054718;-63
2022/06/05 03:20:00;;;;;;;24.70;9.30;;;;;;;19.60;56.81;99281.54;25084;1314;3028874;-64
2022/06/05 03:22:29;;;;;;;18.30;9.20;;;;;;;19.57;57.26;99278.84;25057;1315;3054695;-63
2022/06/05 03:24:58;;;;;;;19.90;8.70;;;;;;;19.58;57.10;99277.61;25112;1314;3026482;-63
2022/06/05 03:27:39;;;;;;;24.70;10.80;;;;;;;19.55;57.10;99276.77;25047;1314;3052432;-63
2022/06/05 03:30:09;;;;;;;29.90;9.80;;;;;;;19.52;57.39;99278.31;25094;1314;3026926;-63
2022/06/05 03:32:38;;;;;;;26.20;10.20;;;;;;;19.55;57.47;99278.69;25108;1315;3026518;-64
2022/06/05 03:35:08;;;;;;;23.90;9.90;;;;;;;19.56;57.27;99276.57;25059;1314;3027546;-63
2022/06/05 03:37:37;;;;;;;25.50;10.10;;;;;;;19.57;57.51;99273.29;25038;1315;3026730;-63
2022/06/05 03:40:08;;;;;;;22.20;10.00;;;;;;;19.58;57.27;99273.27;25090;1314;3026826;-64
2022/06/05 03:42:38;;;;;;;29.30;10.00;;;;;;;19.60;57.58;99264.64;25104;1314;3055602;-61
2022/06/05 03:45:15;;;;;;;25.50;9.90;;;;;;;19.63;57.30;99264.34;25070;1314;3027266;-64
2022/06/05 03:47:44;;;;;;;26.40;10.50;;;;;;;19.63;57.49;99268.59;25092;1314;3052758;-64
2022/06/05 03:50:14;;;;;;;23.10;10.30;;;;;;;19.65;57.33;99264.58;25082;1314;3026024;-63
2022/06/05 03:52:43;;;;;;;20.00;10.00;;;;;;;19.69;57.24;99259.14;25042;1315;3028544;-63
2022/06/05 03:55:14;;;;;;;23.70;9.30;;;;;;;19.69;57.43;99256.44;25111;1314;3026865;-63
2022/06/05 03:57:46;;;;;;;30.90;11.00;;;;;;;19.71;57.39;99257.85;25113;1315;3057082;-64
2022/06/05 04:00:17;;;;;;;30.50;10.60;;;;;;;19.74;57.53;99254.87;25071;1314;3027937;-64
2022/06/05 04:02:47;;;;;;;32.20;11.50;;;;;;;19.79;57.74;99251.58;25064;1314;3027078;-65
2022/06/05 04:05:18;;;;;;;21.80;10.30;;;;;;;19.87;57.54;99243.30;25109;1314;3026800;-64
2022/06/05 04:07:48;;;;;;;26.30;10.00;;;;;;;19.95;57.41;99240.17;25112;1314;3026432;-64
2022/06/05 04:10:19;;;;;;;24.90;9.50;;;;;;;20.07;56.92;99233.55;25073;1314;3028512;-62
2022/06/05 04:12:49;;;;;;;30.20;10.00;;;;;;;20.22;56.70;99230.67;25067;1314;3027532;-63
2022/06/05 04:15:19;;;;;;;24.40;9.90;;;;;;;20.39;56.33;99227.26;25041;1315;3027352;-63
2022/06/05 04:17:48;;;;;;;26.50;10.60;;;;;;;20.54;55.83;99227.42;25109;1314;3026578;-63
2022/06/05 04:20:17;;;;;;;16.30;8.90;;;;;;;20.71;55.59;99226.48;25066;1314;3054040;-63
2022/06/05 04:22:46;;;;;;;26.50;10.30;;;;;;;20.89;55.01;99220.70;25087;1314;3026169;-62
2022/06/05 04:25:15;;;;;;;21.80;10.30;;;;;;;21.01;54.81;99214.27;25084;1315;3027212;-62
2022/06/05 04:27:48;;;;;;;17.40;8.30;;;;;;;21.02;54.87;99210.91;25112;1314;3054225;-63
2022/06/05 04:30:17;;;;;;;20.00;9.70;;;;;;;21.08;55.22;99209.75;25074;1314;3026637;-63
2022/06/05 04:32:48;;;;;;;22.70;9.40;;;;;;;21.09;55.48;99206.92;25096;1315;3051039;-62
2022/06/05 04:35:17;;;;;;;24.10;9.70;;;;;;;21.15;55.21;99210.42;25104;1314;3026830;-63
2022/06/05 04:37:46;;;;;;;24.80;10.00;;;;;;;21.22;55.13;99214.25;25127;1315;3070297;-64
2022/06/05 04:40:15;;;;;;;19.70;9.60;;;;;;;21.22;54.87;99211.80;25093;1314;3026698;-62
2022/06/05 04:42:44;;;;;;;27.70;10.20;;;;;;;21.21;55.03;99209.38;25534;1314;3053374;-66
2022/06/05 04:45:15;;;;;;;26.00;10.10;;;;;;;21.15;55.35;99205.95;25777;1314;3026627;-63
2022/06/05 04:47:46;;;;;;;24.20;10.70;;;;;;;21.16;55.51;99212.13;25825;1314;3026591;-68
2022/06/05 04:50:15;;;;;;;20.00;11.20;;;;;;;21.18;55.60;99211.69;25356;1314;3050674;-63
2022/06/05 04:52:44;;;;;;;22.70;10.30;;;;;;;21.15;55.66;99211.36;25083;1314;3026243;-65
2022/06/05 04:55:14;;;;;;;25.10;10.70;;;;;;;21.18;55.52;99209.26;25108;1314;3053835;-63
2022/06/05 04:57:45;;;;;;;31.70;11.60;;;;;;;21.19;55.34;99205.79;25120;1314;3027531;-62
2022/06/05 05:00:15;;;;;;;27.50;10.50;;;;;;;21.19;55.43;99201.67;25056;1314;3026314;-64
2022/06/05 05:02:45;;;;;;;29.00;11.00;;;;;;;21.20;55.67;99201.31;25101;1314;3055249;-64
2022/06/05 05:05:15;;;;;;;26.10;10.30;;;;;;;21.25;55.54;99198.96;25074;1314;3026556;-63
2022/06/05 05:07:46;;;;;;;18.80;10.30;;;;;;;21.33;55.46;99196.05;25045;1314;3053903;-63
2022/06/05 05:10:16;;;;;;;22.00;10.00;;;;;;;21.40;55.11;99193.80;25115;1314;3026377;-63
2022/06/05 05:12:46;;;;;;;20.70;10.10;;;;;;;21.43;55.40;99196.47;25124;1314;3057417;-63
2022/06/05 05:15:16;;;;;;;21.40;10.50;;;;;;;21.47;55.24;99201.61;25081;1314;3027269;-64
2022/06/05 05:17:46;;;;;;;19.10;10.50;;;;;;;21.57;55.26;99209.73;25099;1314;3026567;-63
2022/06/05 05:20:17;;;;;;;22.20;9.60;;;;;;;21.62;55.32;99211.89;25079;1315;3026703;-63
2022/06/05 05:22:46;;;;;;;22.90;9.70;;;;;;;21.74;55.15;99210.38;25108;1314;3027073;-63
2022/06/05 05:25:15;;;;;;;25.10;10.50;;;;;;;21.84;55.29;99214.45;25042;1315;3026661;-63
2022/06/05 05:27:44;;;;;;;21.00;9.80;;;;;;;21.90;54.99;99216.09;25100;1315;3053661;-64
2022/06/05 05:30:14;;;;;;;21.10;9.60;;;;;;;21.97;55.13;99215.33;25092;1314;3027036;-62
2022/06/05 05:32:43;;;;;;;27.30;9.90;;;;;;;22.03;55.17;99212.33;25051;1314;3026787;-64
2022/06/05 05:35:14;;;;;;;21.80;10.00;;;;;;;22.10;55.08;99207.75;25150;1314;3026497;-63
2022/06/05 05:37:44;;;;;;;24.80;10.20;;;;;;;22.17;55.38;99204.89;25144;1314;3026654;-63
2022/06/05 05:43:02;;;;;;;19.20;9.50;;;;;;;22.32;55.30;99207.18;25100;1314;3052125;-63
2022/06/05 05:45:32;;;;;;;21.80;10.70;;;;;;;22.43;55.30;99205.16;25110;1315;3026380;-62
2022/06/05 05:48:01;;;;;;;21.90;10.40;;;;;;;22.52;55.04;99205.88;25052;1314;3026747;-63
2022/06/05 05:50:30;;;;;;;20.50;10.60;;;;;;;22.58;55.11;99200.89;25100;1315;3054302;-66
2022/06/05 05:52:58;;;;;;;19.10;10.20;;;;;;;22.63;55.39;99200.76;25074;1314;3028924;-65
2022/06/05 05:55:27;;;;;;;24.20;10.90;;;;;;;22.74;55.09;99198.20;25097;1314;3050860;-64
2022/06/05 05:57:56;;;;;;;26.50;10.80;;;;;;;22.85;54.98;99190.00;25089;1314;3026298;-65
2022/06/05 06:00:26;;;;;;;23.90;11.30;;;;;;;22.82;55.29;99197.27;25097;1314;3071059;-65
2022/06/05 06:02:57;;;;;;;24.90;10.30;;;;;;;22.93;54.90;99199.63;25046;1315;3026232;-64
2022/06/05 06:05:26;;;;;;;27.00;10.00;;;;;;;22.99;54.59;99202.45;25108;1314;3027013;-63
2022/06/05 06:08:10;;;;;;;21.70;10.40;;;;;;;23.03;54.59;99198.42;25053;1313;3054845;-64
2022/06/05 06:10:40;;;;;;;24.60;10.50;;;;;;;22.99;54.57;99193.13;25095;1314;3026202;-65
2022/06/05 06:13:09;;;;;;;27.70;11.70;;;;;;;22.98;54.56;99195.48;25100;1314;3028543;-63
2022/06/05 06:15:38;;;;;;;25.80;11.00;;;;;;;23.05;54.47;99191.41;25114;1314;3054820;-64
2022/06/05 06:18:09;;;;;;;32.00;10.60;;;;;;;23.13;54.31;99192.09;25128;1314;3028360;-64
2022/06/05 06:20:38;;;;;;;26.20;11.40;;;;;;;23.19;53.97;99189.80;25108;1314;3026129;-63
2022/06/05 06:23:07;;;;;;;25.50;10.70;;;;;;;23.24;53.69;99185.98;25086;1314;3026271;-64
2022/06/05 06:25:37;;;;;;;21.10;12.20;;;;;;;23.34;53.73;99180.92;25107;1313;3058268;-63
2022/06/05 06:28:06;;;;;;;27.00;10.60;;;;;;;23.30;53.71;99182.64;25109;1315;3028386;-63
2022/06/05 06:30:36;;;;;;;21.20;10.60;;;;;;;23.33;53.76;99190.88;25124;1315;3026787;-65
2022/06/05 06:33:06;;;;;;;25.10;11.10;;;;;;;23.34;53.67;99192.65;25129;1315;3026697;-64
2022/06/05 06:35:36;;;;;;;35.80;12.70;;;;;;;23.46;53.31;99192.36;25074;1314;3026384;-63
2022/06/05 06:38:05;;;;;;;41.80;13.30;;;;;;;23.59;53.01;99189.47;25074;1314;3028557;-63
2022/06/05 06:40:35;;;;;;;30.10;12.90;;;;;;;23.66;52.97;99189.10;25133;1315;3026993;-62
2022/06/05 06:43:04;;;;;;;32.70;14.00;;;;;;;23.60;53.03;99185.52;25100;1315;3068381;-63
2022/06/05 06:45:33;;;;;;;34.50;15.00;;;;;;;23.70;52.97;99184.09;25101;1314;3026282;-65
2022/06/05 06:48:03;;;;;;;55.40;16.50;;;;;;;23.69;53.00;99184.16;25113;1315;3055107;-64
2022/06/05 06:50:32;;;;;;;48.00;18.30;;;;;;;23.74;53.04;99187.76;25126;1314;3026440;-62
2022/06/05 06:53:01;;;;;;;50.90;17.60;;;;;;;23.90;52.62;99188.48;25076;1314;3026580;-64
2022/06/05 06:55:32;;;;;;;47.30;19.60;;;;;;;24.13;52.18;99186.48;25100;1314;3052229;-63
2022/06/05 06:58:04;;;;;;;52.60;20.50;;;;;;;24.34;51.43;99176.86;25087;1314;3027101;-64
2022/06/05 07:00:33;;;;;;;68.10;23.40;;;;;;;24.55;51.26;99172.66;25113;1314;3026623;-65
2022/06/05 07:03:02;;;;;;;64.90;22.80;;;;;;;24.75;51.25;99158.42;25117;1314;3052156;-64
2022/06/05 07:05:32;;;;;;;64.20;22.90;;;;;;;24.95;50.82;99155.11;25051;1315;3028949;-63
2022/06/05 07:08:02;;;;;;;50.50;21.10;;;;;;;25.11;50.12;99150.40;25161;1315;3028536;-63
2022/06/05 07:10:31;;;;;;;49.00;18.60;;;;;;;25.27;49.96;99141.41;25065;1315;3026459;-64
2022/06/05 07:13:03;;;;;;;41.70;14.90;;;;;;;25.46;50.20;99144.08;25139;1315;3026367;-63
2022/06/05 07:15:35;;;;;;;31.60;14.30;;;;;;;25.62;49.92;99150.54;25078;1315;3026524;-63
2022/06/05 07:18:05;;;;;;;35.50;13.30;;;;;;;25.56;50.08;99157.80;25028;1315;3027610;-64
2022/06/05 07:20:38;;;;;;;25.00;11.90;;;;;;;25.52;50.35;99164.35;25104;1313;3026434;-62
2022/06/05 07:23:07;;;;;;;27.70;12.10;;;;;;;25.62;50.26;99170.11;25087;1314;3026901;-64
2022/06/05 07:25:37;;;;;;;26.00;10.90;;;;;;;25.70;49.94;99168.91;25054;1314;3026643;-63
2022/06/05 07:28:06;;;;;;;22.90;11.00;;;;;;;25.74;49.98;99161.58;25131;1313;3052871;-63
2022/06/05 07:30:35;;;;;;;21.70;10.70;;;;;;;25.81;49.73;99160.95;25098;1314;3026631;-63
2022/06/05 07:33:05;;;;;;;33.80;10.90;;;;;;;25.87;49.84;99161.84;25068;1314;3052186;-64
2022/06/05 07:35:34;;;;;;;27.00;10.90;;;;;;;25.88;49.31;99160.58;25106;1314;3026666;-63
2022/06/05 07:38:03;;;;;;;20.50;10.90;;;;;;;25.86;49.15;99161.96;25066;1313;3058109;-63
2022/06/05 07:40:32;;;;;;;24.60;10.40;;;;;;;25.85;49.31;99156.36;25112;1315;3026652;-63
2022/06/05 07:43:01;;;;;;;27.10;10.50;;;;;;;25.93;49.15;99155.17;25051;1314;3026305;-63
2022/06/05 07:45:30;;;;;;;22.80;9.90;;;;;;;26.06;49.03;99157.80;25103;1314;3058256;-62
2022/06/05 07:47:59;;;;;;;19.30;9.50;;;;;;;26.06;48.99;99156.48;25040;1314;3026562;-63
2022/06/05 07:54:26;;;;;;;21.40;9.60;;;;;;;26.18;48.67;99158.52;25097;1315;3055935;-62
2022/06/05 07:56:17;;;;;;;22.90;10.10;;;;;;;26.12;48.67;99151.95;25024;1315;3071392;-62
2022/06/05 07:58:46;;;;;;;25.40;10.20;;;;;;;26.26;48.53;99150.38;25107;1314;3026600;-64
2022/06/05 08:01:16;;;;;;;21.90;9.60;;;;;;;26.42;48.38;99151.83;25084;1315;3053667;-65
2022/06/05 08:03:45;;;;;;;18.10;9.40;;;;;;;26.58;48.56;99153.80;25051;1314;3026496;-63
2022/06/05 08:06:15;;;;;;;18.40;9.30;;;;;;;26.72;47.70;99152.55;25062;1314;3053824;-65
2022/06/05 08:08:46;;;;;;;24.30;10.00;;;;;;;26.76;47.07;99154.30;25131;1314;3026963;-63
2022/06/05 08:11:15;;;;;;;21.40;10.50;;;;;;;26.76;46.93;99156.86;25005;1314;3026450;-63
2022/06/05 08:13:44;;;;;;;18.20;9.70;;;;;;;26.75;47.04;99155.45;25081;1314;3054671;-64
2022/06/05 08:16:16;;;;;;;23.60;9.60;;;;;;;26.78;47.18;99148.75;25116;1314;3027084;-64
2022/06/05 08:18:47;;;;;;;21.10;9.30;;;;;;;26.93;46.91;99140.34;25014;1314;3028954;-64
2022/06/05 08:21:17;;;;;;;21.30;9.30;;;;;;;26.92;46.82;99138.71;25045;1314;3026543;-63
2022/06/05 08:23:47;;;;;;;17.70;8.70;;;;;;;26.82;46.90;99137.20;25085;1314;3026646;-63
2022/06/05 08:26:16;;;;;;;18.80;9.80;;;;;;;26.88;46.82;99137.89;25086;1313;3026472;-64
2022/06/05 08:28:44;;;;;;;23.20;9.10;;;;;;;26.95;46.29;99138.67;25061;1314;3048286;-64
2022/06/05 08:31:14;;;;;;;22.30;9.90;;;;;;;26.99;46.22;99139.18;25105;1314;3026739;-61
2022/06/05 08:33:44;;;;;;;26.20;10.80;;;;;;;27.01;46.01;99139.55;25091;1314;3026656;-64
2022/06/05 08:36:14;;;;;;;27.00;11.80;;;;;;;27.04;45.84;99140.29;25075;1314;3026629;-64
2022/06/05 08:42:09;;;;;;;32.60;13.20;;;;;;;26.93;45.91;99139.88;25038;1315;3054217;-64
2022/06/05 08:44:47;;;;;;;43.30;16.20;;;;;;;26.94;46.29;99139.02;25027;1314;3051587;-63
2022/06/05 08:47:22;;;;;;;35.20;14.50;;;;;;;26.93;46.49;99137.64;25085;1314;3070987;-64
2022/06/05 08:49:57;;;;;;;26.10;13.30;;;;;;;26.94;46.43;99137.94;25071;1314;3051808;-64
2022/06/05 08:52:51;;;;;;;30.60;13.60;;;;;;;26.90;46.55;99138.85;25096;1313;3055405;-63
2022/06/05 08:55:40;;;;;;;24.30;11.20;;;;;;;26.87;46.14;99141.09;24722;1314;3571495;-63
2022/06/05 08:58:12;;;;;;;24.20;10.20;;;;;;;26.90;46.53;99141.17;25048;1314;3059353;-62
2022/06/05 09:01:12;;;;;;;23.70;10.50;;;;;;;26.61;47.04;99147.34;25051;1314;3026689;-62
2022/06/05 09:03:43;;;;;;;23.70;10.10;;;;;;;26.37;47.56;99150.52;25051;1314;3055806;-65
2022/06/05 09:06:15;;;;;;;24.60;11.10;;;;;;;26.25;47.62;99149.88;25122;1315;3026881;-64
2022/06/05 09:08:44;;;;;;;23.30;10.60;;;;;;;26.37;47.26;99152.55;25304;1315;3026836;-63
2022/06/05 09:11:27;;;;;;;23.70;10.80;;;;;;;26.39;47.64;99152.86;25701;1315;3026509;-65
2022/06/05 09:14:08;;;;;;;29.60;11.60;;;;;;;26.48;47.88;99142.92;25765;1314;3051173;-62
2022/06/05 09:16:41;;;;;;;25.80;11.00;;;;;;;26.75;47.14;99138.63;25306;1313;3068730;-64
2022/06/05 09:19:20;;;;;;;22.00;11.10;;;;;;;27.09;45.93;99134.06;25119;1314;3028900;-63
2022/06/05 09:21:58;;;;;;;34.30;11.80;;;;;;;27.49;44.81;99125.85;25054;1314;3052342;-65
2022/06/05 09:24:43;;;;;;;21.60;9.90;;;;;;;27.48;44.22;99126.30;25100;1315;3052675;-62
2022/06/05 09:27:22;;;;;;;19.00;10.50;;;;;;;27.20;43.62;99120.70;25111;1313;3056864;-63
2022/06/05 09:29:56;;;;;;;22.20;10.20;;;;;;;27.14;43.09;99119.00;25073;1314;3052602;-64
2022/06/05 09:32:28;;;;;;;;;;;;;;;27.03;43.78;99120.72;25047;1315;3055521;-64
2022/06/05 09:35:26;;;;;;;28.50;10.60;;;;;;;27.24;42.88;99119.36;25078;1314;3026426;-65
2022/06/05 09:38:11;;;;;;;17.70;9.20;;;;;;;27.77;40.53;99119.28;25043;1314;3070550;-64
2022/06/05 09:40:48;;;;;;;18.50;10.40;;;;;;;27.67;42.72;99124.42;25080;1315;3051806;-66
2022/06/05 09:43:36;;;;;;;17.60;9.10;;;;;;;27.43;43.42;99123.23;25074;1314;3054936;-63
2022/06/05 09:46:08;;;;;;;21.80;9.70;;;;;;;27.06;41.81;99118.09;25042;1315;3055412;-65
2022/06/05 09:48:52;;;;;;;21.60;8.60;;;;;;;26.94;41.92;99119.73;25097;1313;3058880;-63
2022/06/05 09:51:21;;;;;;;16.60;8.60;;;;;;;26.78;41.83;99121.01;25073;1314;3051604;-63
2022/06/05 09:54:30;;;;;;;19.00;9.40;;;;;;;26.83;43.21;99116.58;25111;1314;3026834;-63
2022/06/05 10:00:33;;;;;;;22.70;8.40;;;;;;;26.40;44.49;99114.16;24974;1318;3053114;-65
2022/06/05 10:03:06;;;;;;;17.50;8.90;;;;;;;26.61;45.15;99111.70;25118;1313;3053537;-64
2022/06/05 10:05:39;;;;;;;28.50;10.00;;;;;;;26.67;45.94;99104.13;25122;1315;3052000;-66
2022/06/05 10:08:36;;;;;;;21.60;8.40;;;;;;;26.53;46.38;99108.14;25101;1313;3028383;-63
2022/06/05 10:11:22;;;;;;;20.30;8.90;;;;;;;26.49;46.88;99103.52;25063;1315;3051721;-64
2022/06/05 10:13:56;;;;;;;19.30;8.30;;;;;;;26.39;47.13;99103.13;25057;1315;3055518;-65
2022/06/05 10:16:31;;;;;;;20.10;9.40;;;;;;;26.10;47.45;99109.75;25073;1314;3055015;-64
2022/06/05 10:19:41;;;;;;;26.10;8.70;;;;;;;26.00;47.87;99114.01;25105;1315;3057591;-63
2022/06/05 10:22:19;;;;;;;19.40;8.60;;;;;;;25.84;48.52;99113.98;25087;1314;3050205;-62
2022/06/05 10:24:58;;;;;;;19.10;7.80;;;;;;;25.63;49.24;99120.67;25109;1315;3053467;-63
2022/06/05 10:27:27;;;;;;;21.10;8.00;;;;;;;25.37;49.74;99124.66;25077;1313;3051488;-63
2022/06/05 10:29:56;;;;;;;17.90;7.90;;;;;;;25.21;49.76;99117.93;25112;1314;3028891;-65
2022/06/05 10:33:00;;;;;;;16.50;7.80;;;;;;;25.24;49.76;99117.90;25065;1314;3055366;-64
2022/06/05 10:35:38;;;;;;;20.00;7.40;;;;;;;25.53;49.44;99122.23;25112;1314;3055954;-64
2022/06/05 10:38:30;;;;;;;19.90;7.80;;;;;;;25.55;49.06;99125.69;25090;1314;3071148;-66
2022/06/05 10:41:04;;;;;;;15.10;7.30;;;;;;;25.36;49.57;99125.02;25036;1315;3051725;-64
2022/06/05 10:43:34;;;;;;;15.80;7.80;;;;;;;25.33;49.62;99126.95;25130;1314;3052840;-64
2022/06/05 10:46:05;;;;;;;14.60;7.40;;;;;;;25.10;50.22;99133.06;25066;1313;3026671;-64
2022/06/05 10:48:44;;;;;;;14.80;7.50;;;;;;;25.01;50.25;99132.96;25100;1314;3051849;-64
2022/06/05 10:51:29;;;;;;;18.40;7.60;;;;;;;25.04;49.88;99133.52;25077;1314;3055453;-64
2022/06/05 10:54:20;;;;;;;22.20;7.30;;;;;;;25.12;50.02;99132.88;25120;1314;3053087;-63
2022/06/05 10:57:01;;;;;;;17.60;7.40;;;;;;;25.09;50.09;99131.15;25091;1313;3057895;-63
2022/06/05 10:59:50;;;;;;;23.40;7.20;;;;;;;24.89;50.61;99130.80;25108;1314;3052791;-64
2022/06/05 11:02:23;;;;;;;17.60;7.30;;;;;;;25.03;50.06;99133.94;25137;1314;3055856;-64
2022/06/05 11:05:06;;;;;;;25.80;8.60;;;;;;;25.02;50.25;99135.41;25095;1315;3026659;-65
2022/06/05 11:07:50;;;;;;;17.90;8.40;;;;;;;24.98;49.71;99136.74;25084;1315;3071146;-64
2022/06/05 11:13:39;;;;;;;14.00;7.10;;;;;;;24.42;50.77;99146.61;25048;1314;3054903;-65
2022/06/05 11:16:16;;;;;;;10.80;6.10;;;;;;;24.35;50.85;99146.18;25069;1315;3052418;-66
2022/06/05 11:18:51;;;;;;;16.60;7.00;;;;;;;24.31;50.92;99146.88;25079;1315;3057866;-64
2022/06/05 11:21:21;;;;;;;16.70;6.50;;;;;;;24.37;50.81;99148.47;25145;1314;3050044;-63
2022/06/05 11:23:53;;;;;;;17.00;6.30;;;;;;;24.19;51.30;99152.14;25101;1314;3026266;-65
2022/06/05 11:26:36;;;;;;;25.70;7.50;;;;;;;23.90;51.51;99159.03;25151;1314;3026654;-64
2022/06/05 11:29:18;;;;;;;13.00;6.60;;;;;;;23.68;51.99;99159.80;25034;1314;3069637;-63
2022/06/05 11:32:18;;;;;;;16.90;6.60;;;;;;;23.50;52.09;99160.02;25072;1315;3051839;-67
2022/06/05 11:34:59;;;;;;;16.90;6.50;;;;;;;23.45;52.25;99148.84;25129;1314;3055112;-66
2022/06/05 11:38:00;;;;;;;12.70;5.90;;;;;;;23.54;52.15;99149.21;25071;1314;3053446;-63
2022/06/05 11:40:35;;;;;;;11.40;6.30;;;;;;;23.62;51.99;99135.74;25023;1314;3058902;-65
2022/06/05 11:43:26;;;;;;;13.70;5.40;;;;;;;23.71;51.82;99140.23;25157;1314;3050556;-65
2022/06/05 11:46:01;;;;;;;12.60;6.50;;;;;;;23.64;51.84;99150.34;25065;1315;3055420;-63
2022/06/05 11:48:58;;;;;;;16.60;6.30;;;;;;;23.57;51.61;99150.82;25106;1313;3051481;-66
2022/06/05 11:51:52;;;;;;;15.40;6.00;;;;;;;23.59;51.61;99145.03;25072;1315;3071957;-65
2022/06/05 11:54:55;;;;;;;13.70;5.30;;;;;;;23.88;50.92;99137.80;25030;1315;3049798;-65
2022/06/05 11:57:48;;;;;;;23.00;6.00;;;;;;;24.06;49.38;99138.23;25057;1315;3054736;-63
2022/06/05 12:00:22;;;;;;;18.80;5.10;;;;;;;24.12;48.43;99140.77;25061;1314;3055154;-64
2022/06/05 12:03:23;;;;;;;17.90;4.90;;;;;;;23.98;47.98;99143.91;25137;1315;3056998;-64